Time;durP1;ratioP1;P1;durP2;ratioP2;P2;SDS_P1;SDS_P2;PMS_P1;PMS_P2;Temp;Humidity;BMP_temperature;BMP_pressure;BME280_temperature;BME280_humidity;BME280_pressure;Samples;Min_cycle;Max_cycle;Signal;HPM_P1;HPM_P2
2021/07/01 00:01:38;;;;;;;8.77;5.37;;;15.80;99.90;;;;;;5045273;28;20976;-76
2021/07/01 00:04:05;;;;;;;8.13;5.77;;;15.60;99.90;;;;;;5046418;28;20454;-75
2021/07/01 00:06:34;;;;;;;8.40;5.57;;;15.50;99.90;;;;;;5048526;28;20455;-76
2021/07/01 00:09:01;;;;;;;9.47;7.33;;;15.70;99.90;;;;;;5049804;28;20462;-77
2021/07/01 00:11:28;;;;;;;10.90;6.07;;;15.80;99.90;;;;;;5043484;28;20544;-76
2021/07/01 00:13:55;;;;;;;11.60;6.60;;;15.70;99.90;;;;;;5046730;28;20552;-74
2021/07/01 00:16:22;;;;;;;9.03;6.07;;;15.70;99.90;;;;;;5044815;28;20452;-74
2021/07/01 00:18:50;;;;;;;10.33;7.50;;;15.70;99.90;;;;;;5045292;28;20509;-76
2021/07/01 00:21:17;;;;;;;15.13;7.60;;;15.70;99.90;;;;;;5043876;28;20483;-76
2021/07/01 00:23:45;;;;;;;12.30;6.57;;;15.60;99.90;;;;;;5048963;28;20530;-76
2021/07/01 00:26:12;;;;;;;13.77;7.70;;;15.70;99.90;;;;;;5044320;28;20446;-74
2021/07/01 00:28:39;;;;;;;9.70;6.43;;;15.80;99.90;;;;;;5050509;28;20483;-76
2021/07/01 00:31:06;;;;;;;13.80;7.67;;;15.80;99.90;;;;;;5041147;28;20561;-77
2021/07/01 00:33:33;;;;;;;11.83;7.57;;;15.90;99.90;;;;;;5048242;28;20514;-76
2021/07/01 00:36:00;;;;;;;13.20;7.10;;;15.80;99.90;;;;;;5044004;28;20462;-74
2021/07/01 00:38:27;;;;;;;12.80;6.53;;;15.70;99.90;;;;;;5047791;28;20542;-76
2021/07/01 00:40:56;;;;;;;13.67;6.90;;;15.80;99.90;;;;;;5047616;28;20653;-76
2021/07/01 00:43:23;;;;;;;10.20;6.00;;;15.90;99.90;;;;;;5050215;28;20550;-75
2021/07/01 00:45:50;;;;;;;11.60;7.03;;;15.90;99.90;;;;;;5050101;28;20450;-75
2021/07/01 00:48:17;;;;;;;11.63;6.50;;;15.90;99.90;;;;;;5045361;28;20448;-75
2021/07/01 00:50:45;;;;;;;13.00;8.30;;;15.90;99.90;;;;;;5050530;28;20506;-75
2021/07/01 00:53:12;;;;;;;13.03;7.23;;;15.90;99.90;;;;;;5045377;28;20571;-76
2021/07/01 00:55:39;;;;;;;13.77;8.37;;;15.90;99.90;;;;;;5049946;28;20494;-76
2021/07/01 00:58:08;;;;;;;17.63;9.47;;;15.80;99.90;;;;;;5050345;28;20466;-75
2021/07/01 01:00:46;;;;;;;16.80;8.30;;;15.80;99.90;;;;;;5046730;28;20478;-75
2021/07/01 01:03:12;;;;;;;15.73;8.67;;;15.80;99.90;;;;;;5054550;28;20983;-76
2021/07/01 01:05:39;;;;;;;12.43;7.90;;;15.80;99.90;;;;;;5049204;28;20577;-76
2021/07/01 01:08:07;;;;;;;24.50;12.20;;;15.90;99.90;;;;;;5048942;28;24779;-76
2021/07/01 01:10:34;;;;;;;11.27;6.23;;;15.90;99.90;;;;;;5049730;28;21429;-77
2021/07/01 01:13:01;;;;;;;12.23;7.80;;;15.90;99.90;;;;;;5056781;28;20570;-75
2021/07/01 01:15:29;;;;;;;17.53;8.97;;;15.80;99.90;;;;;;5056573;28;20527;-75
2021/07/01 01:17:56;;;;;;;14.13;8.50;;;15.80;99.90;;;;;;5049274;28;20445;-76
2021/07/01 01:20:23;;;;;;;16.03;8.43;;;15.80;99.90;;;;;;5056402;28;20479;-77
2021/07/01 01:22:52;;;;;;;15.27;10.50;;;15.80;99.90;;;;;;5062223;28;20500;-76
2021/07/01 01:25:19;;;;;;;13.67;9.07;;;15.80;99.90;;;;;;5061025;28;20553;-75
2021/07/01 01:27:46;;;;;;;15.77;8.53;;;15.80;99.90;;;;;;5055933;28;20542;-76
2021/07/01 01:30:14;;;;;;;22.27;10.60;;;15.80;99.90;;;;;;5051210;28;20485;-75
2021/07/01 01:32:41;;;;;;;19.90;8.07;;;15.80;99.90;;;;;;5051263;28;20493;-75
2021/07/01 01:35:09;;;;;;;17.90;9.53;;;15.70;99.90;;;;;;5063639;28;20510;-75
2021/07/01 01:37:36;;;;;;;21.30;8.97;;;15.70;99.90;;;;;;5060416;28;20489;-76
2021/07/01 01:40:05;;;;;;;10.87;7.50;;;15.70;99.90;;;;;;5058624;28;20510;-76
2021/07/01 01:42:32;;;;;;;14.77;8.63;;;15.60;99.90;;;;;;5044516;28;20455;-77
2021/07/01 01:44:59;;;;;;;12.50;8.20;;;15.60;99.90;;;;;;5047813;28;20486;-77
2021/07/01 01:47:26;;;;;;;14.17;8.27;;;15.60;99.90;;;;;;5049179;28;20471;-76
2021/07/01 01:49:53;;;;;;;11.00;6.83;;;15.70;99.90;;;;;;5053626;28;20581;-75
2021/07/01 01:52:20;;;;;;;16.03;8.20;;;15.80;99.90;;;;;;5051461;28;20546;-76
2021/07/01 01:54:46;;;;;;;19.83;7.20;;;15.70;99.90;;;;;;5053352;28;20463;-76
2021/07/01 01:57:15;;;;;;;17.67;10.47;;;15.70;99.90;;;;;;5051226;28;20471;-76
2021/07/01 01:59:42;;;;;;;11.00;6.40;;;15.60;99.90;;;;;;5047130;28;20483;-77
2021/07/01 02:02:09;;;;;;;18.30;9.93;;;15.60;99.90;;;;;;5044723;28;20568;-76
2021/07/01 02:04:36;;;;;;;12.70;8.37;;;15.70;99.90;;;;;;5050534;28;20534;-74
2021/07/01 02:07:03;;;;;;;16.27;8.07;;;15.60;99.90;;;;;;5048019;28;20554;-77
2021/07/01 02:09:30;;;;;;;11.97;8.93;;;15.60;99.90;;;;;;5046660;28;20559;-77
2021/07/01 02:11:57;;;;;;;17.23;10.10;;;15.70;99.90;;;;;;5048133;28;20546;-75
2021/07/01 02:14:25;;;;;;;12.77;7.23;;;15.50;99.90;;;;;;5043855;28;20483;-76
2021/07/01 02:16:52;;;;;;;18.63;9.30;;;15.50;99.90;;;;;;5049143;28;20539;-76
2021/07/01 02:19:19;;;;;;;14.60;8.03;;;15.60;99.90;;;;;;5048613;28;22413;-76
2021/07/01 02:21:46;;;;;;;13.90;8.40;;;15.60;99.90;;;;;;5049356;28;20538;-77
2021/07/01 02:24:13;;;;;;;12.50;7.73;;;15.70;99.90;;;;;;5049808;28;20488;-76
2021/07/01 02:26:40;;;;;;;15.00;9.30;;;15.60;99.90;;;;;;5045179;28;20639;-77
2021/07/01 02:29:07;;;;;;;14.83;7.93;;;15.50;99.90;;;;;;5045690;28;20470;-76
2021/07/01 02:31:35;;;;;;;11.60;6.33;;;15.50;99.90;;;;;;5043606;28;20570;-76
2021/07/01 02:34:02;;;;;;;14.43;7.07;;;15.50;99.90;;;;;;5045036;28;20530;-76
2021/07/01 02:36:29;;;;;;;13.77;7.80;;;15.50;99.90;;;;;;5046381;28;20565;-76
2021/07/01 02:38:57;;;;;;;11.37;7.27;;;15.40;99.90;;;;;;5048385;28;20573;-76
2021/07/01 02:41:24;;;;;;;9.40;5.10;;;15.40;99.90;;;;;;5046923;28;20475;-76
2021/07/01 02:43:51;;;;;;;11.93;6.77;;;15.50;99.90;;;;;;5052319;28;20603;-75
2021/07/01 02:46:18;;;;;;;13.97;7.50;;;15.50;99.90;;;;;;5050372;28;20446;-76
2021/07/01 02:48:46;;;;;;;14.27;9.57;;;15.60;99.90;;;;;;5050878;28;20556;-76
2021/07/01 02:51:13;;;;;;;9.00;6.00;;;15.70;99.90;;;;;;5050793;28;20565;-76
2021/07/01 02:53:40;;;;;;;12.07;7.47;;;15.70;99.90;;;;;;5049183;28;20565;-76
2021/07/01 02:56:07;;;;;;;10.20;7.53;;;15.50;99.90;;;;;;5049763;28;20451;-74
2021/07/01 02:58:34;;;;;;;11.53;6.47;;;15.70;99.90;;;;;;5045745;28;20460;-75
2021/07/01 03:01:02;;;;;;;9.60;6.27;;;15.60;99.90;;;;;;5045013;28;20511;-76
2021/07/01 03:03:29;;;;;;;13.43;6.90;;;15.60;99.90;;;;;;5046259;28;20447;-76
2021/07/01 03:05:57;;;;;;;12.47;7.10;;;15.70;99.90;;;;;;5044226;28;20908;-77
2021/07/01 03:08:24;;;;;;;16.43;6.30;;;15.80;99.90;;;;;;5045580;28;20499;-75
2021/07/01 03:10:51;;;;;;;13.20;7.43;;;15.80;99.90;;;;;;5053064;28;20485;-77
2021/07/01 03:13:18;;;;;;;14.50;9.47;;;15.70;99.90;;;;;;5049407;28;20558;-76
2021/07/01 03:15:45;;;;;;;16.83;9.23;;;15.70;99.90;;;;;;5047824;28;20533;-76
2021/07/01 03:18:12;;;;;;;11.77;7.90;;;15.70;99.90;;;;;;5048990;28;20463;-77
2021/07/01 03:20:39;;;;;;;12.60;7.20;;;15.70;99.90;;;;;;5050533;28;20998;-77
2021/07/01 03:23:08;;;;;;;12.13;6.90;;;15.70;99.90;;;;;;5051999;28;20471;-77
2021/07/01 03:25:35;;;;;;;15.90;8.67;;;15.70;99.90;;;;;;5055830;28;20972;-75
2021/07/01 03:28:02;;;;;;;15.60;7.30;;;15.80;99.90;;;;;;5052476;28;21116;-76
2021/07/01 03:30:29;;;;;;;17.40;7.43;;;15.70;99.90;;;;;;5044662;28;20983;-75
2021/07/01 03:32:56;;;;;;;14.20;7.17;;;15.70;99.90;;;;;;5051270;28;20498;-77
2021/07/01 03:35:23;;;;;;;11.33;7.63;;;15.60;99.90;;;;;;5050032;28;20492;-76
2021/07/01 03:37:50;;;;;;;17.53;8.97;;;15.50;99.90;;;;;;5056614;28;20478;-76
2021/07/01 03:40:18;;;;;;;14.73;8.00;;;15.50;99.90;;;;;;5054889;28;21090;-76
2021/07/01 03:42:45;;;;;;;9.60;5.80;;;15.60;99.90;;;;;;5050540;28;20509;-76
2021/07/01 03:45:12;;;;;;;15.20;8.83;;;15.70;99.90;;;;;;5060170;28;20487;-76
2021/07/01 03:47:39;;;;;;;11.30;6.80;;;15.70;99.90;;;;;;5054627;28;20516;-76
2021/07/01 03:50:07;;;;;;;14.27;8.00;;;15.70;99.90;;;;;;5053713;28;20514;-76
2021/07/01 03:52:34;;;;;;;11.90;8.67;;;15.60;99.90;;;;;;5061054;28;20573;-76
2021/07/01 03:55:01;;;;;;;13.47;7.53;;;15.30;99.90;;;;;;5055807;28;20517;-76
2021/07/01 03:57:29;;;;;;;13.53;8.97;;;15.20;99.90;;;;;;5052900;28;20542;-76
2021/07/01 03:59:57;;;;;;;13.10;9.30;;;15.40;99.90;;;;;;5056607;28;20511;-77
2021/07/01 04:02:24;;;;;;;15.20;8.73;;;15.40;99.90;;;;;;5053683;28;20769;-76
2021/07/01 04:04:51;;;;;;;17.87;9.27;;;15.50;99.90;;;;;;5050661;28;20443;-77
2021/07/01 04:07:18;;;;;;;21.90;10.60;;;15.60;99.90;;;;;;5049891;28;20476;-77
2021/07/01 04:09:44;;;;;;;14.93;9.60;;;15.70;99.90;;;;;;5055361;28;20583;-75
2021/07/01 04:12:11;;;;;;;16.23;7.73;;;15.60;99.90;;;;;;5050720;28;20550;-76
2021/07/01 04:14:40;;;;;;;21.90;9.60;;;15.60;99.90;;;;;;5055803;28;20488;-77
2021/07/01 04:17:07;;;;;;;17.50;10.53;;;15.50;99.90;;;;;;5047949;28;20483;-76
2021/07/01 04:19:34;;;;;;;16.00;10.20;;;15.40;99.90;;;;;;5052580;28;21026;-76
2021/07/01 04:22:01;;;;;;;12.13;7.23;;;15.50;99.90;;;;;;5050418;28;20459;-76
2021/07/01 04:24:28;;;;;;;12.87;6.57;;;15.40;99.90;;;;;;5052339;28;20478;-76
2021/07/01 04:26:55;;;;;;;14.37;8.57;;;15.20;99.90;;;;;;5046969;28;20556;-74
2021/07/01 04:29:22;;;;;;;10.27;6.80;;;15.20;99.90;;;;;;5049546;28;20498;-75
2021/07/01 04:31:51;;;;;;;15.83;8.53;;;15.20;99.90;;;;;;5039502;28;20473;-74
2021/07/01 04:34:18;;;;;;;8.80;5.20;;;15.30;99.90;;;;;;5054080;28;20579;-76
2021/07/01 04:36:45;;;;;;;14.17;7.73;;;15.30;99.90;;;;;;5055733;28;20519;-76
2021/07/01 04:39:12;;;;;;;13.43;7.43;;;15.30;99.90;;;;;;5060160;28;20458;-74
2021/07/01 04:41:39;;;;;;;22.93;9.20;;;15.20;99.90;;;;;;5058859;28;20463;-75
2021/07/01 04:44:06;;;;;;;18.47;8.93;;;15.40;99.90;;;;;;5060589;28;20482;-75
2021/07/01 04:46:33;;;;;;;14.23;7.40;;;15.30;99.90;;;;;;5059257;28;20478;-74
2021/07/01 04:49:02;;;;;;;14.97;8.53;;;15.40;99.90;;;;;;5059328;28;20466;-75
2021/07/01 04:51:28;;;;;;;11.13;7.07;;;15.40;99.90;;;;;;5063564;28;20517;-75
2021/07/01 04:53:55;;;;;;;12.70;6.93;;;15.30;99.90;;;;;;5063292;28;21060;-75
2021/07/01 04:56:22;;;;;;;8.23;5.80;;;15.40;99.90;;;;;;5062666;28;25938;-76
2021/07/01 04:58:50;;;;;;;14.40;5.33;;;15.40;99.90;;;;;;5052796;28;20462;-75
2021/07/01 05:01:17;;;;;;;9.73;6.70;;;15.30;99.90;;;;;;5059255;28;20575;-75
2021/07/01 05:03:44;;;;;;;14.83;6.27;;;15.40;99.90;;;;;;5062343;28;20557;-76
2021/07/01 05:06:12;;;;;;;11.63;6.47;;;15.50;99.90;;;;;;5060110;28;20451;-76
2021/07/01 05:08:39;;;;;;;14.43;7.13;;;15.50;99.90;;;;;;5060512;28;20829;-76
2021/07/01 05:11:06;;;;;;;15.00;6.30;;;15.50;99.90;;;;;;5060111;28;22031;-76
2021/07/01 05:13:33;;;;;;;12.20;6.73;;;15.60;99.90;;;;;;5056970;28;20478;-75
2021/07/01 05:16:00;;;;;;;14.03;8.43;;;15.50;99.90;;;;;;5058275;28;20484;-75
2021/07/01 05:18:27;;;;;;;16.70;8.30;;;15.40;99.90;;;;;;5057149;28;20821;-76
2021/07/01 05:20:54;;;;;;;9.40;5.87;;;15.40;99.90;;;;;;5059598;28;20483;-74
2021/07/01 05:23:22;;;;;;;8.73;4.63;;;15.40;99.90;;;;;;5057298;28;20493;-75
2021/07/01 05:25:49;;;;;;;14.40;5.87;;;15.30;99.90;;;;;;5059327;28;20494;-77
2021/07/01 05:28:16;;;;;;;12.97;5.80;;;15.30;99.90;;;;;;5059997;28;20495;-73
2021/07/01 05:30:43;;;;;;;9.80;4.40;;;15.40;99.90;;;;;;5053160;28;20533;-76
2021/07/01 05:33:10;;;;;;;10.80;5.87;;;15.40;99.90;;;;;;5060710;28;20546;-75
2021/07/01 05:35:37;;;;;;;9.97;4.27;;;15.50;99.90;;;;;;5056380;28;20542;-76
2021/07/01 05:38:04;;;;;;;8.93;5.07;;;15.50;99.90;;;;;;5054306;28;20839;-76
2021/07/01 05:40:32;;;;;;;8.07;6.10;;;15.30;99.90;;;;;;5061175;28;20606;-74
2021/07/01 05:42:59;;;;;;;7.63;5.20;;;15.30;99.90;;;;;;5060806;28;20895;-77
2021/07/01 05:45:26;;;;;;;8.60;5.33;;;15.40;99.90;;;;;;5058109;28;20872;-77
2021/07/01 05:47:53;;;;;;;11.87;5.40;;;15.50;99.90;;;;;;5052990;28;20455;-77
2021/07/01 05:50:21;;;;;;;5.97;4.47;;;15.30;99.90;;;;;;5056404;28;20553;-76
2021/07/01 05:52:52;;;;;;;14.40;6.30;;;15.40;99.90;;;;;;5057726;28;20505;-77
2021/07/01 05:55:19;;;;;;;4.07;3.37;;;15.50;99.90;;;;;;5056792;28;20497;-75
2021/07/01 05:57:47;;;;;;;6.73;4.73;;;15.50;99.90;;;;;;5056673;28;20463;-77
2021/07/01 06:00:17;;;;;;;5.03;3.37;;;15.40;99.90;;;;;;5058029;28;20565;-73
2021/07/01 06:02:45;;;;;;;8.73;3.60;;;15.20;99.90;;;;;;5059350;28;20461;-74
2021/07/01 06:05:12;;;;;;;8.07;4.83;;;15.30;99.90;;;;;;5056436;28;20997;-74
2021/07/01 06:07:42;;;;;;;9.40;4.10;;;15.40;99.90;;;;;;5062273;28;20555;-75
2021/07/01 06:10:11;;;;;;;6.43;4.70;;;15.50;99.90;;;;;;5076484;28;20489;-77
2021/07/01 06:12:39;;;;;;;5.90;4.20;;;15.40;99.90;;;;;;5078349;28;20446;-77
2021/07/01 06:15:08;;;;;;;7.07;4.33;;;15.50;99.90;;;;;;5076881;28;20486;-77
2021/07/01 06:17:35;;;;;;;9.37;4.40;;;15.60;99.90;;;;;;5074530;28;20447;-74
2021/07/01 06:20:04;;;;;;;7.50;4.77;;;15.70;99.90;;;;;;5067403;28;20571;-73
2021/07/01 06:22:32;;;;;;;8.07;3.67;;;15.80;99.90;;;;;;5060213;28;20467;-74
2021/07/01 06:25:00;;;;;;;5.43;4.47;;;15.80;99.90;;;;;;5058189;28;20569;-74
2021/07/01 06:27:33;;;;;;;5.47;4.10;;;15.70;99.90;;;;;;5062726;28;20593;-74
2021/07/01 06:30:03;;;;;;;6.10;4.17;;;15.70;99.90;;;;;;5058022;28;21012;-75
2021/07/01 06:32:33;;;;;;;8.10;4.67;;;15.60;99.90;;;;;;5057569;28;20843;-74
2021/07/01 06:35:00;;;;;;;8.83;4.27;;;15.80;99.90;;;;;;5062704;28;20474;-75
2021/07/01 06:37:31;;;;;;;6.90;3.57;;;15.80;99.90;;;;;;5066025;28;20447;-77
2021/07/01 06:40:00;;;;;;;8.27;4.60;;;15.60;99.90;;;;;;5065854;28;20502;-76
2021/07/01 06:42:29;;;;;;;6.33;3.63;;;15.60;99.90;;;;;;5065765;28;20476;-76
2021/07/01 06:44:57;;;;;;;7.97;4.23;;;15.70;99.90;;;;;;5060629;28;20752;-77
2021/07/01 06:47:28;;;;;;;6.03;4.70;;;15.70;99.90;;;;;;5056943;28;20533;-77
2021/07/01 06:49:57;;;;;;;7.73;4.17;;;15.70;99.90;;;;;;5061847;28;20475;-76
2021/07/01 06:52:24;;;;;;;8.17;6.13;;;15.60;99.90;;;;;;5067318;28;20497;-75
2021/07/01 06:54:52;;;;;;;7.13;5.10;;;15.50;99.90;;;;;;5067675;28;20487;-76
2021/07/01 06:57:19;;;;;;;8.30;5.63;;;15.40;99.90;;;;;;5067274;28;20482;-76
2021/07/01 06:59:46;;;;;;;6.80;5.17;;;15.40;99.90;;;;;;5058702;28;20490;-77
2021/07/01 07:02:14;;;;;;;11.17;5.73;;;15.30;99.90;;;;;;5060563;28;20903;-78
2021/07/01 07:04:41;;;;;;;11.10;6.80;;;15.50;99.90;;;;;;5057532;28;20435;-75
2021/07/01 07:07:10;;;;;;;14.60;7.00;;;15.50;99.90;;;;;;5062294;28;21106;-75
2021/07/01 07:09:39;;;;;;;8.43;6.37;;;15.50;99.90;;;;;;5072873;28;20501;-74
2021/07/01 07:12:06;;;;;;;11.57;7.20;;;15.60;99.90;;;;;;5072572;28;20626;-74
2021/07/01 07:14:33;;;;;;;11.27;6.63;;;15.50;99.90;;;;;;5064189;28;20482;-75
2021/07/01 07:17:00;;;;;;;8.57;4.80;;;15.30;99.90;;;;;;5063842;28;20455;-74
2021/07/01 07:19:30;;;;;;;12.37;8.13;;;15.30;99.90;;;;;;5065298;28;20455;-74
2021/07/01 07:22:01;;;;;;;10.93;7.20;;;15.20;99.90;;;;;;5064120;28;20467;-74
2021/07/01 07:24:33;;;;;;;8.03;4.07;;;15.30;99.90;;;;;;5071205;28;20439;-76
2021/07/01 07:27:00;;;;;;;9.37;6.50;;;15.50;99.90;;;;;;5073387;28;20442;-75
2021/07/01 07:29:32;;;;;;;9.87;5.67;;;15.50;99.90;;;;;;5065523;28;20459;-75
2021/07/01 07:32:03;;;;;;;9.13;4.77;;;15.40;99.90;;;;;;5073266;28;20450;-75
2021/07/01 07:34:31;;;;;;;8.23;4.23;;;15.50;99.90;;;;;;5065573;28;20471;-75
2021/07/01 07:36:58;;;;;;;16.13;6.40;;;15.50;99.90;;;;;;5068575;28;20450;-75
2021/07/01 07:39:26;;;;;;;12.83;5.83;;;15.60;99.90;;;;;;5057049;28;20512;-78
2021/07/01 07:41:55;;;;;;;5.67;4.50;;;15.60;99.90;;;;;;5059091;28;20446;-74
2021/07/01 07:44:22;;;;;;;12.70;6.10;;;15.50;99.90;;;;;;5059499;28;20533;-78
2021/07/01 07:46:50;;;;;;;10.90;7.80;;;15.50;99.90;;;;;;5058139;28;20474;-75
2021/07/01 07:49:19;;;;;;;8.83;6.00;;;15.60;99.90;;;;;;5057609;28;20462;-76
2021/07/01 07:51:50;;;;;;;10.47;5.87;;;15.40;99.90;;;;;;5059190;28;20443;-75
2021/07/01 07:54:22;;;;;;;11.07;7.23;;;15.40;99.90;;;;;;5057926;28;20546;-75
2021/07/01 07:56:50;;;;;;;7.90;4.60;;;15.50;99.90;;;;;;5055509;28;21085;-76
2021/07/01 07:59:22;;;;;;;12.00;7.40;;;15.60;99.90;;;;;;5057890;28;20498;-75
2021/07/01 08:01:52;;;;;;;14.50;7.63;;;15.50;99.90;;;;;;5055571;28;20530;-76
2021/07/01 08:04:20;;;;;;;8.50;6.43;;;15.50;99.90;;;;;;5058382;28;20459;-75
2021/07/01 08:06:50;;;;;;;13.50;5.63;;;15.70;99.90;;;;;;5059699;28;20538;-76
2021/07/01 08:09:18;;;;;;;10.30;6.93;;;15.70;99.90;;;;;;5057273;28;20528;-76
2021/07/01 08:11:49;;;;;;;11.90;7.43;;;15.60;99.90;;;;;;5059072;28;20928;-76
2021/07/01 08:14:19;;;;;;;7.93;5.60;;;15.70;99.90;;;;;;5067624;28;20446;-76
2021/07/01 08:16:46;;;;;;;9.03;4.73;;;15.80;99.90;;;;;;5063489;28;20511;-75
2021/07/01 08:19:13;;;;;;;11.07;7.20;;;15.80;99.90;;;;;;5062415;28;20546;-75
2021/07/01 08:21:41;;;;;;;7.87;5.77;;;15.50;99.90;;;;;;5057967;28;20479;-76
2021/07/01 08:24:09;;;;;;;8.87;5.27;;;15.50;99.90;;;;;;5058897;28;21033;-75
2021/07/01 08:26:37;;;;;;;8.70;4.63;;;15.60;99.90;;;;;;5062964;28;20857;-77
2021/07/01 08:29:05;;;;;;;6.07;4.10;;;15.60;99.90;;;;;;5060488;28;20536;-75
2021/07/01 08:31:35;;;;;;;10.77;5.87;;;15.60;99.90;;;;;;5068600;28;20482;-76
2021/07/01 08:34:06;;;;;;;6.93;3.70;;;15.60;99.90;;;;;;5059070;28;20495;-76
2021/07/01 08:36:35;;;;;;;6.63;3.40;;;15.60;99.90;;;;;;5058761;28;20494;-77
2021/07/01 08:39:06;;;;;;;10.93;4.50;;;15.70;99.90;;;;;;5068624;28;22146;-74
2021/07/01 08:41:33;;;;;;;6.73;4.37;;;15.50;99.90;;;;;;5071029;28;20499;-74
2021/07/01 08:44:02;;;;;;;7.23;6.50;;;15.40;99.90;;;;;;5076738;28;20446;-75
2021/07/01 08:46:31;;;;;;;9.20;4.87;;;15.50;99.90;;;;;;5073944;28;20462;-76
2021/07/01 08:49:04;;;;;;;11.47;6.00;;;15.50;99.90;;;;;;5072903;28;20482;-74
2021/07/01 08:51:34;;;;;;;11.53;6.20;;;15.60;99.90;;;;;;5068428;28;20483;-75
2021/07/01 08:54:23;;;;;;;8.57;5.87;;;15.60;99.90;;;;;;5067049;28;20431;-76
2021/07/01 08:56:51;;;;;;;13.90;6.10;;;15.60;99.90;;;;;;5062519;28;20471;-75
2021/07/01 08:59:20;;;;;;;6.77;5.20;;;15.70;99.90;;;;;;5061713;28;20550;-76
2021/07/01 09:01:57;;;;;;;9.57;4.77;;;15.50;99.90;;;;;;5064645;28;20439;-75
2021/07/01 09:04:29;;;;;;;8.73;4.80;;;15.60;99.90;;;;;;5058473;28;20435;-76
2021/07/01 09:07:02;;;;;;;8.90;5.27;;;15.70;99.90;;;;;;5062326;28;20597;-75
2021/07/01 09:09:34;;;;;;;9.87;5.83;;;15.70;99.90;;;;;;5058408;28;20966;-75
2021/07/01 09:12:04;;;;;;;6.70;4.43;;;15.60;99.90;;;;;;5070769;28;20455;-74
2021/07/01 09:14:32;;;;;;;10.27;5.57;;;15.60;99.90;;;;;;5070454;28;20458;-74
2021/07/01 09:17:04;;;;;;;13.90;6.23;;;15.60;99.90;;;;;;5069449;28;20535;-75
2021/07/01 09:19:33;;;;;;;4.17;3.00;;;15.60;99.90;;;;;;5061307;28;20474;-75
2021/07/01 09:22:02;;;;;;;7.53;5.03;;;15.60;99.90;;;;;;5058643;28;20455;-75
2021/07/01 09:24:35;;;;;;;7.27;4.37;;;15.60;99.90;;;;;;5058725;28;20896;-75
2021/07/01 09:27:04;;;;;;;8.13;4.10;;;15.60;99.90;;;;;;5056400;28;20470;-76
2021/07/01 09:29:32;;;;;;;6.30;3.80;;;15.50;99.90;;;;;;5065318;28;20986;-75
2021/07/01 09:32:00;;;;;;;5.90;3.60;;;15.50;99.90;;;;;;5060844;28;20854;-76
2021/07/01 09:34:29;;;;;;;5.83;3.47;;;15.60;99.90;;;;;;5059819;28;20874;-75
2021/07/01 09:36:57;;;;;;;4.80;3.00;;;15.50;99.90;;;;;;5061120;28;20573;-76
2021/07/01 09:39:26;;;;;;;10.27;4.30;;;15.50;99.90;;;;;;5057665;28;20551;-75
2021/07/01 09:41:57;;;;;;;4.67;3.43;;;15.50;99.90;;;;;;5062436;28;20450;-75
2021/07/01 09:44:26;;;;;;;5.00;4.23;;;15.50;99.90;;;;;;5060421;28;20919;-75
2021/07/01 09:46:57;;;;;;;6.63;4.30;;;15.60;99.90;;;;;;5056357;28;20450;-75
2021/07/01 09:49:31;;;;;;;6.93;4.30;;;15.60;99.90;;;;;;5060523;28;20462;-75
2021/07/01 09:52:02;;;;;;;9.03;5.10;;;15.60;99.90;;;;;;5053517;28;20505;-75
2021/07/01 09:54:31;;;;;;;9.07;3.90;;;15.70;99.90;;;;;;5059472;28;20881;-75
2021/07/01 09:57:04;;;;;;;6.77;4.37;;;15.80;99.90;;;;;;5060546;28;20681;-76
2021/07/01 09:59:35;;;;;;;7.13;4.77;;;16.00;99.90;;;;;;5062292;28;20479;-75
2021/07/01 10:02:19;;;;;;;9.17;6.10;;;15.90;99.90;;;;;;5060629;28;20487;-76
2021/07/01 10:04:47;;;;;;;4.37;3.40;;;16.20;99.90;;;;;;5060805;28;20440;-76
2021/07/01 10:07:20;;;;;;;12.10;5.37;;;16.10;99.90;;;;;;5057223;28;20463;-75
2021/07/01 10:09:50;;;;;;;5.60;4.57;;;16.20;99.90;;;;;;5058678;28;20511;-75
2021/07/01 10:12:20;;;;;;;5.93;3.60;;;16.30;99.90;;;;;;5058824;28;20443;-76
2021/07/01 10:14:49;;;;;;;5.17;3.90;;;16.30;99.90;;;;;;5056265;28;20559;-76
2021/07/01 10:17:18;;;;;;;4.80;3.13;;;16.20;99.90;;;;;;5060586;28;20443;-76
2021/07/01 10:19:46;;;;;;;4.77;3.60;;;16.10;99.90;;;;;;5054958;28;20515;-75
2021/07/01 10:22:18;;;;;;;10.33;5.17;;;16.10;99.90;;;;;;5058773;28;20591;-73
2021/07/01 10:24:53;;;;;;;8.30;5.10;;;16.20;99.90;;;;;;5055815;28;20907;-75
2021/07/01 10:27:31;;;;;;;8.23;6.10;;;16.20;99.90;;;;;;5055044;28;20448;-76
2021/07/01 10:30:01;;;;;;;16.10;5.53;;;16.20;99.90;;;;;;5057178;28;20593;-75
2021/07/01 10:32:44;;;;;;;11.00;6.10;;;16.00;99.90;;;;;;5056515;28;20479;-75
2021/07/01 10:35:25;;;;;;;7.57;4.93;;;15.90;99.90;;;;;;5059264;28;20648;-76
2021/07/01 10:38:11;;;;;;;9.60;5.47;;;15.80;99.90;;;;;;5058018;28;20447;-75
2021/07/01 10:40:42;;;;;;;9.43;5.10;;;15.70;99.90;;;;;;5060370;28;20540;-75
2021/07/01 10:43:09;;;;;;;5.07;2.37;;;15.80;99.90;;;;;;5064616;28;20443;-74
2021/07/01 10:45:37;;;;;;;7.10;5.20;;;15.70;99.90;;;;;;5063231;28;21342;-75
2021/07/01 10:48:15;;;;;;;9.13;5.00;;;15.70;99.90;;;;;;5060080;28;21044;-75
2021/07/01 10:50:44;;;;;;;9.67;8.27;;;15.60;99.90;;;;;;5056885;28;20904;-75
2021/07/01 10:53:32;;;;;;;8.53;5.20;;;15.70;99.90;;;;;;5057871;28;20471;-75
2021/07/01 10:56:03;;;;;;;9.93;7.47;;;15.70;99.90;;;;;;5057135;28;20570;-76
2021/07/01 10:58:30;;;;;;;7.37;5.03;;;15.60;99.90;;;;;;5056791;28;20478;-75
2021/07/01 11:00:59;;;;;;;7.83;3.97;;;15.70;99.90;;;;;;5059076;28;20582;-75
2021/07/01 11:03:29;;;;;;;9.60;5.30;;;15.60;99.90;;;;;;5062475;28;20483;-76
2021/07/01 11:05:56;;;;;;;6.37;3.90;;;15.70;99.90;;;;;;5060649;28;20439;-75
2021/07/01 11:08:25;;;;;;;6.97;4.23;;;15.90;99.90;;;;;;5055527;28;20474;-77
2021/07/01 11:10:53;;;;;;;12.40;5.57;;;15.90;99.90;;;;;;5060859;28;20507;-75
2021/07/01 11:13:24;;;;;;;7.87;4.50;;;16.00;99.90;;;;;;5060967;28;20485;-75
2021/07/01 11:16:13;;;;;;;6.90;5.70;;;15.90;99.90;;;;;;5058668;28;20491;-75
2021/07/01 11:18:42;;;;;;;9.00;6.80;;;15.90;99.90;;;;;;5060593;28;20439;-75
2021/07/01 11:21:14;;;;;;;9.77;8.27;;;16.20;99.90;;;;;;5061255;28;20568;-76
2021/07/01 11:23:41;;;;;;;11.47;7.87;;;16.30;99.90;;;;;;5053357;28;20440;-77
2021/07/01 11:26:27;;;;;;;10.93;6.67;;;16.20;99.90;;;;;;5057486;28;20855;-76
2021/07/01 11:28:56;;;;;;;13.70;8.77;;;16.30;99.90;;;;;;5059567;28;20446;-77
2021/07/01 11:31:40;;;;;;;15.03;9.93;;;16.30;99.90;;;;;;5058244;28;20975;-77
2021/07/01 11:34:08;;;;;;;11.53;8.50;;;16.20;99.90;;;;;;5059563;28;20960;-78
2021/07/01 11:36:36;;;;;;;9.00;6.50;;;16.10;99.90;;;;;;5060489;28;20522;-77
2021/07/01 11:39:12;;;;;;;8.07;4.90;;;16.10;99.90;;;;;;5055842;28;20474;-77
2021/07/01 11:41:41;;;;;;;11.57;6.43;;;16.00;99.90;;;;;;5061398;28;20462;-78
2021/07/01 11:44:11;;;;;;;8.63;5.80;;;16.00;99.90;;;;;;5061277;28;20508;-77
2021/07/01 11:46:39;;;;;;;9.43;5.97;;;16.00;99.90;;;;;;5051164;28;20444;-77
2021/07/01 11:49:07;;;;;;;11.60;4.87;;;16.00;99.90;;;;;;5063253;28;20463;-78
2021/07/01 11:51:36;;;;;;;7.67;4.33;;;16.00;99.90;;;;;;5062178;28;20462;-76
2021/07/01 11:54:03;;;;;;;7.67;5.90;;;16.00;99.90;;;;;;5059435;28;20479;-77
2021/07/01 11:56:53;;;;;;;8.00;6.00;;;16.00;99.90;;;;;;5070152;28;20573;-77
2021/07/01 11:59:20;;;;;;;8.27;5.30;;;16.10;99.90;;;;;;5063934;28;20470;-77
2021/07/01 12:01:47;;;;;;;7.07;5.40;;;16.00;99.90;;;;;;5072293;28;20444;-77
2021/07/01 12:04:16;;;;;;;12.03;5.50;;;16.00;99.90;;;;;;5065658;28;20443;-77
2021/07/01 12:06:54;;;;;;;7.40;3.77;;;15.90;99.90;;;;;;5060549;28;20466;-77
2021/07/01 12:09:23;;;;;;;5.07;3.40;;;15.70;99.90;;;;;;5068536;28;20438;-76
2021/07/01 12:12:19;;;;;;;4.90;4.20;;;15.50;99.90;;;;;;5076740;28;20550;-78
2021/07/01 12:14:49;;;;;;;4.70;4.03;;;15.50;99.90;;;;;;5079245;28;20464;-77
2021/07/01 12:17:51;;;;;;;4.23;3.53;;;15.70;99.90;;;;;;5073380;28;20631;-77
2021/07/01 12:20:36;;;;;;;4.97;4.40;;;15.60;99.90;;;;;;5054281;28;20566;-77
2021/07/01 12:23:05;;;;;;;5.47;3.90;;;15.60;99.90;;;;;;5057176;28;20448;-77
2021/07/01 12:25:49;;;;;;;4.50;3.30;;;15.60;99.90;;;;;;5054912;28;20447;-77
2021/07/01 12:28:21;;;;;;;6.83;4.90;;;15.70;99.90;;;;;;5063871;28;20451;-76
2021/07/01 12:31:02;;;;;;;5.10;3.20;;;15.80;99.90;;;;;;5055705;28;21029;-77
2021/07/01 12:33:42;;;;;;;6.83;5.67;;;15.80;99.90;;;;;;5057324;28;20613;-77
2021/07/01 12:36:13;;;;;;;5.03;3.93;;;15.80;99.90;;;;;;5058201;28;20495;-77
2021/07/01 12:38:41;;;;;;;5.50;4.03;;;15.60;99.90;;;;;;5054311;28;20481;-76
2021/07/01 12:41:09;;;;;;;6.30;4.30;;;15.50;99.90;;;;;;5056976;28;20554;-77
2021/07/01 12:43:59;;;;;;;3.00;2.70;;;15.60;99.90;;;;;;5058312;28;20444;-77
2021/07/01 12:47:09;;;;;;;6.30;4.40;;;15.60;99.90;;;;;;5060447;28;20442;-77
2021/07/01 12:50:04;;;;;;;5.37;3.07;;;15.60;99.90;;;;;;5058596;28;20815;-76
2021/07/01 12:52:45;;;;;;;7.87;5.27;;;15.60;99.90;;;;;;5059950;28;20446;-78